createdAt,value
2023-04-27T00:02:14.304Z,101970.31
2023-04-27T00:04:43.207Z,101968.72
2023-04-27T00:07:11.369Z,101966.09
2023-04-27T00:09:39.129Z,101966.91
2023-04-27T00:12:07.678Z,101967.78
2023-04-27T00:14:35.474Z,101969.66
2023-04-27T00:17:04.613Z,101976.00
2023-04-27T00:19:32.414Z,101979.50
2023-04-27T00:22:00.639Z,101983.25
2023-04-27T00:24:28.441Z,101973.47
2023-04-27T00:26:57.720Z,101972.41
2023-04-27T00:29:25.672Z,101976.06
2023-04-27T00:31:53.703Z,101984.28
2023-04-27T00:34:25.084Z,101986.09
2023-04-27T00:36:52.944Z,101986.28
2023-04-27T00:39:21.704Z,101988.25
2023-04-27T00:41:49.418Z,101997.31
2023-04-27T00:44:23.820Z,101997.25
2023-04-27T00:46:51.966Z,102002.53
2023-04-27T00:49:19.940Z,101996.25
2023-04-27T00:51:49.775Z,101990.00
2023-04-27T00:54:20.428Z,101996.25
2023-04-27T00:56:49.750Z,101990.94
2023-04-27T00:59:17.546Z,101989.13
2023-04-27T01:01:46.965Z,101999.91
2023-04-27T01:04:15.639Z,101992.78
2023-04-27T01:06:43.496Z,101997.34
2023-04-27T01:09:13.381Z,101998.34
2023-04-27T01:11:41.268Z,101998.44
2023-04-27T01:14:08.974Z,101993.81
2023-04-27T01:16:37.314Z,101989.25
2023-04-27T01:19:05.370Z,101990.19
2023-04-27T01:21:33.875Z,101998.34
2023-04-27T01:24:03.327Z,102000.44
2023-04-27T01:26:31.182Z,102005.78
2023-04-27T01:28:59.037Z,102012.03
2023-04-27T01:31:29.275Z,102005.78
2023-04-27T01:33:57.187Z,102010.97
2023-04-27T01:36:25.504Z,102011.88
2023-04-27T01:38:53.268Z,102010.06
2023-04-27T01:41:22.426Z,102008.31
2023-04-27T01:43:50.171Z,102009.09
2023-04-27T01:46:18.166Z,102010.16
2023-04-27T01:48:46.026Z,102013.75
2023-04-27T01:51:13.903Z,102007.53
2023-04-27T01:53:42.977Z,102014.56
2023-04-27T01:56:11.455Z,102023.47
2023-04-27T01:58:40.677Z,102021.63
2023-04-27T02:01:09.014Z,102030.59
2023-04-27T02:03:36.823Z,102035.28
2023-04-27T02:06:06.770Z,102032.63
2023-04-27T02:08:35.865Z,102029.75
2023-04-27T02:11:04.072Z,102040.56
2023-04-27T02:13:31.957Z,102038.75
2023-04-27T02:16:02.159Z,102031.53
2023-04-27T02:18:30.692Z,102030.72
2023-04-27T02:20:58.458Z,102032.47
2023-04-27T02:23:26.208Z,102028.13
2023-04-27T02:25:53.928Z,102025.47
2023-04-27T02:28:21.678Z,102023.81
2023-04-27T02:30:50.025Z,102023.66
2023-04-27T02:33:19.172Z,102023.69
2023-04-27T02:35:46.909Z,102024.50
2023-04-27T02:38:14.940Z,102022.91
2023-04-27T02:40:44.186Z,102029.03
2023-04-27T02:43:11.970Z,102024.69
2023-04-27T02:45:39.713Z,102030.06
2023-04-27T02:48:12.280Z,102029.09
2023-04-27T02:50:57.922Z,102028.19
2023-04-27T02:53:25.768Z,102021.84
2023-04-27T02:55:53.536Z,102028.03
2023-04-27T02:58:21.428Z,102023.66
2023-04-27T03:00:55.676Z,102023.59
2023-04-27T03:03:49.850Z,102020.03
2023-04-27T03:06:19.319Z,102020.94
2023-04-27T03:08:47.436Z,102017.41
2023-04-27T03:11:40.761Z,102006.75
2023-04-27T03:14:15.404Z,102002.31
2023-04-27T03:16:43.172Z,101996.84
2023-04-27T03:19:14.100Z,102007.59
2023-04-27T03:21:47.789Z,102011.19
2023-04-27T03:24:17.185Z,102010.31
2023-04-27T03:26:44.990Z,102012.94
2023-04-27T03:29:12.981Z,102014.72
2023-04-27T03:31:43.600Z,102007.63
2023-04-27T03:34:11.898Z,102016.53
2023-04-27T03:36:40.191Z,102015.69
2023-04-27T03:39:12.903Z,102015.66
2023-04-27T03:41:40.999Z,102013.94
2023-04-27T03:44:09.076Z,102022.84
2023-04-27T03:46:39.311Z,102018.31
2023-04-27T03:49:11.436Z,102028.13
2023-04-27T03:51:42.249Z,102019.22
2023-04-27T03:54:10.679Z,102017.41
2023-04-27T03:56:53.572Z,102020.03
2023-04-27T04:03:18.784Z,102023.56
2023-04-27T04:05:47.153Z,102029.75
2023-04-27T04:08:15.464Z,102032.44
2023-04-27T04:10:43.714Z,102037.81
2023-04-27T04:13:13.096Z,102039.53
2023-04-27T04:15:41.372Z,102035.03
2023-04-27T04:18:09.437Z,102031.50
2023-04-27T04:20:40.270Z,102035.91
2023-04-27T04:23:28.565Z,102040.38
2023-04-27T04:44:30.851Z,102038.53
2023-04-27T04:47:00.766Z,102035.81
2023-04-27T04:49:28.637Z,102044.78
2023-04-27T04:51:58.802Z,102038.44
2023-04-27T04:54:27.690Z,102036.59
2023-04-27T04:56:56.081Z,102029.41
2023-04-27T04:59:26.920Z,102037.41
2023-04-27T05:01:56.409Z,102036.41
2023-04-27T05:04:24.685Z,102035.53
2023-04-27T05:06:53.036Z,102044.31
2023-04-27T05:09:20.934Z,102049.63
2023-04-27T05:11:48.670Z,102051.38
2023-04-27T05:14:16.547Z,102056.63
2023-04-27T05:16:46.282Z,102054.81
2023-04-27T05:19:18.263Z,102057.34
2023-04-27T05:21:46.304Z,102055.59
2023-04-27T05:24:14.383Z,102059.88
2023-04-27T05:26:44.291Z,102063.28
2023-04-27T05:29:12.592Z,102067.41
2023-04-27T05:31:40.600Z,102055.16
2023-04-27T05:34:09.952Z,102057.72
2023-04-27T05:36:39.151Z,102054.81
2023-04-27T05:39:07.109Z,102049.19
2023-04-27T05:41:35.050Z,102036.56
2023-04-27T05:44:03.218Z,102040.38
2023-04-27T05:46:31.295Z,102039.06
2023-04-27T05:48:58.967Z,102038.97
2023-04-27T05:51:27.260Z,102039.66
2023-04-27T05:53:56.315Z,102038.44
2023-04-27T05:56:24.005Z,102040.88
2023-04-27T05:58:52.434Z,102041.78
2023-04-27T06:01:21.667Z,102047.56
2023-04-27T06:03:50.750Z,102045.34
2023-04-27T06:06:20.586Z,102042.28
2023-04-27T06:08:48.515Z,102045.66
2023-04-27T06:11:18.001Z,102042.44
2023-04-27T06:13:46.264Z,102043.75
2023-04-27T06:16:14.314Z,102030.88
2023-04-27T06:18:45.283Z,102028.91
2023-04-27T06:21:13.966Z,102022.00
2023-04-27T06:23:46.316Z,102024.31
2023-04-27T06:26:18.246Z,102034.31
2023-04-27T06:29:11.553Z,102032.22
2023-04-27T06:31:39.603Z,102034.16
2023-04-27T06:34:07.578Z,102034.78
2023-04-27T06:36:35.938Z,102027.69
2023-04-27T06:39:03.958Z,102022.31
2023-04-27T06:41:33.805Z,102017.88
2023-04-27T06:44:01.888Z,102016.69
2023-04-27T06:46:29.750Z,102020.63
2023-04-27T06:48:57.568Z,102010.81
2023-04-27T06:51:25.495Z,102001.41
2023-04-27T06:53:54.199Z,102001.09
2023-04-27T06:56:22.376Z,102007.63
2023-04-27T06:58:57.895Z,102001.72
2023-04-27T07:01:26.174Z,102001.91
2023-04-27T07:03:54.136Z,102001.56
2023-04-27T07:06:25.662Z,101999.41
2023-04-27T07:08:53.796Z,102009.59
2023-04-27T07:11:21.654Z,102000.13
2023-04-27T07:13:51.754Z,101997.75
2023-04-27T07:16:21.542Z,102003.84
2023-04-27T07:18:52.086Z,102009.59
2023-04-27T07:21:20.253Z,102008.47
2023-04-27T07:24:05.111Z,101999.84
2023-04-27T07:27:17.612Z,102003.34
2023-04-27T07:30:17.616Z,102000.59
2023-04-27T07:33:07.898Z,102003.81
2023-04-27T07:35:48.344Z,102003.44
2023-04-27T07:42:41.465Z,102000.19
2023-04-27T07:45:12.494Z,101991.88
2023-04-27T07:48:16.848Z,101986.22
2023-04-27T07:51:00.135Z,101983.78
2023-04-27T07:53:52.039Z,101988.59
2023-04-27T07:56:37.143Z,101987.22
2023-04-27T07:59:06.519Z,101995.56
2023-04-27T08:01:47.292Z,101988.44
2023-04-27T08:04:21.602Z,101980.53
2023-04-27T08:06:51.655Z,101986.00
2023-04-27T08:09:38.231Z,101991.78
2023-04-27T08:12:16.444Z,101977.22
2023-04-27T08:14:47.737Z,101971.78
2023-04-27T08:17:18.886Z,101971.22
2023-04-27T08:19:51.166Z,101963.78
2023-04-27T08:22:29.316Z,101961.41
2023-04-27T08:25:07.134Z,101943.91
2023-04-27T08:27:41.849Z,101947.31
2023-04-27T08:30:11.752Z,101937.91
2023-04-27T08:32:46.392Z,101930.75
2023-04-27T08:35:18.356Z,101924.53
2023-04-27T08:37:47.080Z,101925.78
2023-04-27T08:40:20.807Z,101917.66
2023-04-27T08:42:56.516Z,101914.63
2023-04-27T08:45:42.034Z,101916.03
2023-04-27T08:51:04.251Z,101910.91
2023-04-27T08:53:32.072Z,101892.34
2023-04-27T08:55:59.878Z,101900.91
2023-04-27T08:58:37.736Z,101896.50
2023-04-27T09:01:07.924Z,101907.72
2023-04-27T09:03:37.940Z,101890.75
2023-04-27T09:06:06.778Z,101898.09
2023-04-27T09:08:45.395Z,101874.91
2023-04-27T09:11:13.181Z,101862.50
2023-04-27T09:13:45.124Z,101880.41
2023-04-27T09:16:15.233Z,101879.44
2023-04-27T09:18:45.097Z,101876.88
2023-04-27T09:21:23.384Z,101879.88
2023-04-27T09:23:51.286Z,101870.28
2023-04-27T09:26:22.140Z,101863.59
2023-04-27T09:28:51.715Z,101859.28
2023-04-27T09:31:20.307Z,101857.09
2023-04-27T09:33:57.301Z,101848.47
2023-04-27T09:36:26.844Z,101847.69
2023-04-27T09:38:55.639Z,101818.47
2023-04-27T09:41:23.570Z,101822.72
2023-04-27T09:43:52.774Z,101822.13
2023-04-27T09:46:21.997Z,101839.38
2023-04-27T09:48:51.456Z,101830.88
2023-04-27T09:51:19.118Z,101848.78
2023-04-27T09:53:52.701Z,101834.94
2023-04-27T09:56:30.274Z,101818.31
2023-04-27T09:59:22.955Z,101796.06
2023-04-27T10:01:55.056Z,101801.84
2023-04-27T10:04:55.981Z,101805.47
2023-04-27T10:07:24.042Z,101808.22
2023-04-27T10:09:52.530Z,101798.34
2023-04-27T10:12:22.569Z,101787.03
2023-04-27T10:14:52.267Z,101787.28
2023-04-27T10:17:21.037Z,101796.41
2023-04-27T10:19:58.800Z,101759.88
2023-04-27T10:22:39.321Z,101771.13
2023-04-27T10:25:21.953Z,101744.53
2023-04-27T10:27:52.703Z,101761.69
2023-04-27T10:30:22.077Z,101766.06
2023-04-27T10:32:54.484Z,101773.41
2023-04-27T10:35:33.314Z,101754.78
2023-04-27T10:38:07.201Z,101751.09
2023-04-27T10:40:35.730Z,101745.03
2023-04-27T10:43:10.802Z,101739.50
2023-04-27T10:45:38.972Z,101741.38
2023-04-27T10:48:07.415Z,101767.06
2023-04-27T10:50:36.982Z,101757.72
2023-04-27T10:53:06.116Z,101746.00
2023-04-27T10:55:35.409Z,101754.78
2023-04-27T10:58:04.272Z,101745.88
2023-04-27T11:00:35.308Z,101762.69
2023-04-27T11:03:14.126Z,101768.97
2023-04-27T11:05:45.030Z,101754.75
2023-04-27T11:08:14.175Z,101756.09
2023-04-27T11:10:46.011Z,101727.28
2023-04-27T11:13:15.066Z,101735.25
2023-04-27T11:15:47.332Z,101741.25
2023-04-27T11:18:16.625Z,101748.75
2023-04-27T11:20:49.199Z,101724.56
2023-04-27T11:23:25.398Z,101719.31
2023-04-27T11:25:54.381Z,101712.09
2023-04-27T11:28:22.694Z,101695.72
2023-04-27T11:30:57.394Z,101708.59
2023-04-27T11:33:25.656Z,101698.94
2023-04-27T11:35:56.425Z,101692.50
2023-04-27T11:38:24.750Z,101696.63
2023-04-27T11:41:03.581Z,101683.03
2023-04-27T11:43:31.741Z,101688.44
2023-04-27T11:46:00.099Z,101663.25
2023-04-27T11:48:28.833Z,101641.56
2023-04-27T11:50:59.124Z,101620.28
2023-04-27T11:53:31.373Z,101643.50
2023-04-27T11:56:01.096Z,101636.03
2023-04-27T11:58:29.089Z,101642.78
2023-04-27T12:00:58.169Z,101614.72
2023-04-27T12:03:27.052Z,101612.59
2023-04-27T12:05:55.940Z,101607.69
2023-04-27T12:08:26.291Z,101606.50
2023-04-27T12:10:54.374Z,101578.91
2023-04-27T12:13:22.271Z,101603.41
2023-04-27T12:15:50.274Z,101576.50
2023-04-27T12:18:18.184Z,101576.09
2023-04-27T12:20:45.966Z,101593.34
2023-04-27T12:23:13.961Z,101597.41
2023-04-27T12:25:44.117Z,101584.72
2023-04-27T12:28:12.184Z,101568.34
2023-04-27T12:30:40.082Z,101574.38
2023-04-27T12:33:11.113Z,101606.16
2023-04-27T12:35:39.209Z,101557.66
2023-04-27T12:38:07.248Z,101584.22
2023-04-27T12:40:36.143Z,101596.06
2023-04-27T12:43:08.464Z,101569.19
2023-04-27T12:45:36.951Z,101575.78
2023-04-27T12:48:05.149Z,101556.50
2023-04-27T12:50:33.847Z,101555.19
2023-04-27T12:53:04.982Z,101552.84
2023-04-27T12:55:34.635Z,101560.47
2023-04-27T12:58:04.018Z,101566.31
2023-04-27T13:00:34.314Z,101559.81
2023-04-27T13:03:02.247Z,101581.31
2023-04-27T13:05:32.035Z,101581.34
2023-04-27T13:08:00.638Z,101585.59
2023-04-27T13:10:29.445Z,101593.72
2023-04-27T13:13:01.428Z,101610.97
2023-04-27T13:15:30.003Z,101584.94
2023-04-27T13:17:59.928Z,101558.84
2023-04-27T13:20:31.224Z,101553.19
2023-04-27T13:22:59.422Z,101533.53
2023-04-27T13:25:27.648Z,101550.16
2023-04-27T13:27:57.829Z,101562.91
2023-04-27T13:30:25.599Z,101588.19
2023-04-27T13:32:53.799Z,101598.28
2023-04-27T13:35:23.819Z,101576.19
2023-04-27T13:37:53.879Z,101584.00
2023-04-27T13:40:22.202Z,101554.25
2023-04-27T13:42:50.827Z,101572.22
2023-04-27T13:45:18.563Z,101570.03
2023-04-27T13:47:46.971Z,101572.59
2023-04-27T13:50:15.118Z,101569.50
2023-04-27T13:52:45.068Z,101580.41
2023-04-27T13:55:13.163Z,101563.56
2023-04-27T13:57:41.149Z,101586.09
2023-04-27T14:00:11.300Z,101574.03
2023-04-27T14:02:40.046Z,101559.00
2023-04-27T14:05:08.850Z,101593.91
2023-04-27T14:07:36.824Z,101587.31
2023-04-27T14:10:07.133Z,101572.50
2023-04-27T14:12:35.838Z,101581.91
2023-04-27T14:15:03.779Z,101581.50
2023-04-27T14:17:31.479Z,101591.28
2023-04-27T14:19:59.360Z,101587.44
2023-04-27T14:22:27.618Z,101581.44
2023-04-27T14:24:56.546Z,101595.31
2023-04-27T14:27:25.814Z,101602.56
2023-04-27T14:29:53.629Z,101599.81
2023-04-27T14:32:21.584Z,101594.50
2023-04-27T14:34:49.507Z,101596.25
2023-04-27T14:37:17.783Z,101610.13
2023-04-27T14:39:46.886Z,101592.06
2023-04-27T14:42:14.866Z,101583.47
2023-04-27T14:44:44.470Z,101551.41
2023-04-27T14:47:12.492Z,101544.38
2023-04-27T14:49:40.785Z,101543.13
2023-04-27T14:52:08.561Z,101556.28
2023-04-27T14:54:38.427Z,101570.06
2023-04-27T14:57:06.194Z,101548.25
2023-04-27T14:59:34.526Z,101554.69
2023-04-27T15:02:04.806Z,101546.06
2023-04-27T15:04:35.300Z,101553.41
2023-04-27T15:07:03.066Z,101539.41
2023-04-27T15:09:30.798Z,101562.72
2023-04-27T15:11:58.660Z,101571.44
2023-04-27T15:14:26.403Z,101557.66
2023-04-27T15:16:54.100Z,101573.94
2023-04-27T15:19:23.212Z,101556.88
2023-04-27T15:21:51.013Z,101567.47
2023-04-27T15:24:18.760Z,101576.78
2023-04-27T15:26:47.852Z,101571.03
2023-04-27T15:29:15.910Z,101545.53
2023-04-27T15:31:44.262Z,101564.28
2023-04-27T15:34:12.029Z,101557.00
2023-04-27T15:36:41.860Z,101557.44
2023-04-27T15:39:10.390Z,101550.66
2023-04-27T15:41:38.252Z,101560.00
2023-04-27T15:44:06.526Z,101553.94
2023-04-27T15:46:34.437Z,101556.28
2023-04-27T15:49:02.321Z,101540.47
2023-04-27T15:51:30.710Z,101534.88
2023-04-27T15:54:00.011Z,101549.31
2023-04-27T15:56:30.613Z,101536.75
2023-04-27T15:58:58.774Z,101544.09
2023-04-27T16:01:26.782Z,101544.66
2023-04-27T16:03:54.697Z,101538.88
2023-04-27T16:06:22.550Z,101541.00
2023-04-27T16:08:50.486Z,101549.72
2023-04-27T16:11:20.551Z,101505.34
2023-04-27T16:13:48.235Z,101525.66
2023-04-27T16:16:15.961Z,101484.25
2023-04-27T16:18:43.948Z,101509.59
2023-04-27T16:21:11.867Z,101508.63
2023-04-27T16:23:39.662Z,101509.41
2023-04-27T16:26:07.699Z,101502.16
2023-04-27T16:28:37.231Z,101494.69
2023-04-27T16:31:05.491Z,101473.38
2023-04-27T16:33:33.612Z,101499.22
2023-04-27T16:36:01.632Z,101487.31
2023-04-27T16:38:29.456Z,101477.25
2023-04-27T16:40:57.404Z,101484.41
2023-04-27T16:43:25.523Z,101487.34
2023-04-27T16:45:55.751Z,101504.78
2023-04-27T16:48:23.924Z,101502.66
2023-04-27T16:50:53.200Z,101482.69
2023-04-27T16:53:22.825Z,101482.09
2023-04-27T16:55:50.602Z,101466.75
2023-04-27T16:58:18.510Z,101475.56
2023-04-27T17:00:46.299Z,101473.97
2023-04-27T17:03:15.609Z,101472.50
2023-04-27T17:05:43.494Z,101466.88
2023-04-27T17:08:11.379Z,101468.19
2023-04-27T17:10:39.181Z,101470.88
2023-04-27T17:13:07.680Z,101498.19
2023-04-27T17:15:35.508Z,101473.56
2023-04-27T17:18:05.123Z,101472.72
2023-04-27T17:20:34.398Z,101456.94
2023-04-27T17:23:02.149Z,101470.47
2023-04-27T17:25:31.706Z,101470.28
2023-04-27T17:28:01.277Z,101477.19
2023-04-27T17:30:29.705Z,101490.84
2023-04-27T17:32:57.760Z,101471.25
2023-04-27T17:35:26.644Z,101488.13
2023-04-27T17:37:56.166Z,101474.59
2023-04-27T17:40:24.028Z,101484.00
2023-04-27T17:42:54.584Z,101484.16
2023-04-27T17:45:22.750Z,101485.47
2023-04-27T17:47:50.803Z,101484.38
2023-04-27T17:50:18.960Z,101483.56
2023-04-27T17:52:47.625Z,101490.50
2023-04-27T17:55:17.213Z,101505.84
2023-04-27T17:57:45.640Z,101511.22
2023-04-27T18:00:15.458Z,101511.34
2023-04-27T18:02:43.344Z,101504.44
2023-04-27T18:05:11.191Z,101502.63
2023-04-27T18:07:39.307Z,101520.66
2023-04-27T18:10:08.576Z,101529.91
2023-04-27T18:12:37.999Z,101515.31
2023-04-27T18:15:09.334Z,101525.72
2023-04-27T18:17:38.235Z,101534.53
2023-04-27T18:20:10.521Z,101519.84
2023-04-27T18:22:40.486Z,101529.91
2023-04-27T18:25:10.940Z,101523.97
2023-04-27T18:27:41.605Z,101512.97
2023-04-27T18:30:09.877Z,101499.59
2023-04-27T18:32:37.793Z,101521.47
2023-04-27T18:35:06.655Z,101532.25
2023-04-27T18:37:34.605Z,101527.91
2023-04-27T18:40:02.447Z,101539.59
2023-04-27T18:42:30.599Z,101530.34
2023-04-27T18:45:01.826Z,101543.34
2023-04-27T18:47:29.629Z,101531.66
2023-04-27T18:49:57.480Z,101534.38
2023-04-27T18:52:25.337Z,101542.81
2023-04-27T18:54:53.187Z,101527.38
2023-04-27T18:57:21.322Z,101522.63
2023-04-27T18:59:49.244Z,101510.88
2023-04-27T19:02:18.896Z,101515.94
2023-04-27T19:04:52.853Z,101521.09
2023-04-27T19:07:25.107Z,101516.38
2023-04-27T19:09:54.959Z,101508.97
2023-04-27T19:12:24.239Z,101513.22
2023-04-27T19:14:52.363Z,101520.47
2023-04-27T19:17:22.068Z,101520.47
2023-04-27T19:19:49.974Z,101510.97
2023-04-27T19:22:17.691Z,101511.81
2023-04-27T19:24:45.444Z,101517.84
2023-04-27T19:27:13.913Z,101523.97
2023-04-27T19:29:51.298Z,101526.59
2023-04-27T19:32:19.592Z,101531.00
2023-04-27T19:34:49.410Z,101516.53
2023-04-27T19:37:17.244Z,101532.50
2023-04-27T19:39:44.949Z,101535.09
2023-04-27T19:42:14.056Z,101522.47
2023-04-27T19:44:41.818Z,101509.72
2023-04-27T19:47:11.340Z,101518.75
2023-04-27T19:49:39.584Z,101519.72
2023-04-27T19:52:09.073Z,101517.16
2023-04-27T19:54:38.252Z,101525.34
2023-04-27T19:57:06.245Z,101520.47
2023-04-27T19:59:34.026Z,101513.13
2023-04-27T20:02:01.989Z,101519.94
2023-04-27T20:04:29.980Z,101498.97
2023-04-27T20:06:57.833Z,101502.31
2023-04-27T20:09:27.056Z,101493.78
2023-04-27T20:11:55.752Z,101481.56
2023-04-27T20:14:24.314Z,101489.59
2023-04-27T20:16:52.146Z,101485.66
2023-04-27T20:19:20.805Z,101485.16
2023-04-27T20:21:48.715Z,101483.69
2023-04-27T20:24:16.825Z,101456.63
2023-04-27T20:26:46.391Z,101472.63
2023-04-27T20:29:14.157Z,101470.41
2023-04-27T20:31:42.079Z,101468.16
2023-04-27T20:34:09.969Z,101468.50
2023-04-27T20:36:37.732Z,101462.81
2023-04-27T20:39:05.784Z,101472.28
2023-04-27T20:41:34.836Z,101476.94
2023-04-27T20:44:04.987Z,101454.81
2023-04-27T20:46:32.756Z,101452.75
2023-04-27T20:49:00.879Z,101446.09
2023-04-27T20:51:29.254Z,101449.91
2023-04-27T20:53:57.057Z,101450.06
2023-04-27T20:56:24.848Z,101437.88
2023-04-27T20:58:52.626Z,101437.09
2023-04-27T21:01:21.889Z,101430.66
2023-04-27T21:03:49.972Z,101431.63
2023-04-27T21:06:17.846Z,101426.00
2023-04-27T21:08:46.028Z,101421.97
2023-04-27T21:11:15.113Z,101420.34
2023-04-27T21:13:44.388Z,101408.44
2023-04-27T21:16:12.129Z,101404.41
2023-04-27T21:18:41.962Z,101398.13
2023-04-27T21:21:09.656Z,101377.66
2023-04-27T21:23:37.367Z,101379.81
2023-04-27T21:26:05.954Z,101383.31
2023-04-27T21:28:33.732Z,101379.59
2023-04-27T21:31:01.632Z,101388.03
2023-04-27T21:33:31.665Z,101352.78
2023-04-27T21:36:03.558Z,101351.25
2023-04-27T21:38:31.309Z,101362.69
2023-04-27T21:40:59.527Z,101360.09
2023-04-27T21:43:27.578Z,101346.47
2023-04-27T21:45:55.380Z,101343.88
2023-04-27T21:48:23.320Z,101344.22
2023-04-27T21:50:51.547Z,101327.41
2023-04-27T21:53:20.820Z,101329.50
2023-04-27T21:55:49.406Z,101327.81
2023-04-27T21:58:17.095Z,101312.19
2023-04-27T22:00:45.124Z,101303.88
2023-04-27T22:03:13.560Z,101304.69
2023-04-27T22:05:41.516Z,101301.97
2023-04-27T22:08:09.939Z,101319.66
2023-04-27T22:10:39.291Z,101292.44
2023-04-27T22:13:17.553Z,101289.84
2023-04-27T22:15:46.970Z,101307.34
2023-04-27T22:18:15.677Z,101299.63
2023-04-27T22:20:44.294Z,101298.56
2023-04-27T22:23:12.038Z,101311.94
2023-04-27T22:25:42.667Z,101303.84
2023-04-27T22:28:10.904Z,101298.88
2023-04-27T22:30:39.263Z,101307.63
2023-04-27T22:33:07.334Z,101312.97
2023-04-27T22:35:36.323Z,101314.59
2023-04-27T22:38:04.238Z,101290.88
2023-04-27T22:40:32.489Z,101284.06
2023-04-27T22:43:01.667Z,101286.16
2023-04-27T22:45:29.427Z,101288.94
2023-04-27T22:47:57.637Z,101283.22
2023-04-27T22:50:25.583Z,101271.81
2023-04-27T22:52:53.380Z,101275.63
2023-04-27T22:55:21.132Z,101269.44
2023-04-27T22:57:50.032Z,101302.19
2023-04-27T23:00:19.409Z,101307.47
2023-04-27T23:02:47.602Z,101282.50
2023-04-27T23:05:16.547Z,101289.50
2023-04-27T23:07:46.170Z,101297.47
2023-04-27T23:10:15.336Z,101305.56
2023-04-27T23:12:43.124Z,101296.25
2023-04-27T23:15:12.518Z,101298.00
2023-04-27T23:17:41.804Z,101292.75
2023-04-27T23:20:24.210Z,101280.91
2023-04-27T23:22:54.829Z,101278.31
2023-04-27T23:25:22.579Z,101281.78
2023-04-27T23:27:52.126Z,101288.56
2023-04-27T23:30:21.042Z,101289.69
2023-04-27T23:32:50.555Z,101290.53
2023-04-27T23:35:18.714Z,101284.00
2023-04-27T23:37:46.487Z,101287.81
2023-04-27T23:40:14.307Z,101279.72
2023-04-27T23:42:42.087Z,101292.31
2023-04-27T23:45:10.454Z,101292.31
2023-04-27T23:47:38.247Z,101280.78
2023-04-27T23:50:08.793Z,101285.31
2023-04-27T23:52:37.134Z,101276.59
2023-04-27T23:55:05.763Z,101270.63
2023-04-27T23:57:33.570Z,101265.06
